Time;durP1;ratioP1;P1;durP2;ratioP2;P2;SDS_P1;SDS_P2;PMS_P1;PMS_P2;Temp;Humidity;BMP_temperature;BMP_pressure;BME280_temperature;BME280_humidity;BME280_pressure;Samples;Min_cycle;Max_cycle;Signal;HPM_P1;HPM_P2
2021/08/14 00:00:56;;;;;;;22.27;5.57;;;;;;;;;;5038470;28;20032;-76
2021/08/14 00:03:21;;;;;;;19.38;5.60;;;;;;;;;;5055879;28;20017;-76
2021/08/14 00:05:47;;;;;;;19.40;5.28;;;;;;;;;;5056285;28;20539;-75
2021/08/14 00:08:12;;;;;;;21.55;5.20;;;;;;;;;;5055728;28;20112;-76
2021/08/14 00:10:37;;;;;;;19.48;5.05;;;;;;;;;;5056190;28;20028;-75
2021/08/14 00:13:03;;;;;;;23.52;5.40;;;;;;;;;;5055791;28;20037;-75
2021/08/14 00:15:28;;;;;;;20.20;5.90;;;;;;;;;;5038121;28;20033;-75
2021/08/14 00:17:53;;;;;;;24.80;6.03;;;;;;;;;;5055991;28;20049;-75
2021/08/14 00:20:19;;;;;;;22.02;5.78;;;;;;;;;;5056002;28;20021;-76
2021/08/14 00:22:44;;;;;;;18.23;5.30;;;;;;;;;;5055968;28;20479;-76
2021/08/14 00:25:11;;;;;;;21.60;5.57;;;;;;;;;;5055856;28;20024;-76
2021/08/14 00:27:36;;;;;;;22.33;5.68;;;;;;;;;;5055827;28;20384;-75
2021/08/14 00:30:02;;;;;;;24.50;5.15;;;;;;;;;;5054345;28;20174;-75
2021/08/14 00:32:27;;;;;;;20.45;5.38;;;;;;;;;;5055722;28;20025;-75
2021/08/14 00:34:53;;;;;;;27.42;7.57;;;;;;;;;;5037921;28;20060;-76
2021/08/14 00:37:18;;;;;;;27.02;6.32;;;;;;;;;;5055734;28;20469;-75
2021/08/14 00:39:43;;;;;;;22.55;6.82;;;;;;;;;;5055364;28;20049;-75
2021/08/14 00:42:09;;;;;;;22.08;6.20;;;;;;;;;;5055522;28;20025;-75
2021/08/14 00:44:34;;;;;;;20.17;7.95;;;;;;;;;;5054754;28;20086;-75
2021/08/14 00:46:59;;;;;;;21.20;6.43;;;;;;;;;;5054750;28;20021;-75
2021/08/14 00:49:25;;;;;;;23.08;6.85;;;;;;;;;;5055383;28;20041;-75
2021/08/14 00:51:50;;;;;;;19.50;6.07;;;;;;;;;;5055278;28;20068;-75
2021/08/14 00:54:15;;;;;;;24.88;7.75;;;;;;;;;;5055326;28;20041;-75
2021/08/14 00:56:41;;;;;;;21.58;6.50;;;;;;;;;;5055351;28;20451;-75
2021/08/14 00:59:06;;;;;;;23.55;6.38;;;;;;;;;;5055666;28;20111;-75
2021/08/14 01:01:32;;;;;;;21.85;6.70;;;;;;;;;;5037387;28;20056;-75
2021/08/14 01:03:58;;;;;;;21.88;6.65;;;;;;;;;;5055157;28;20420;-75
2021/08/14 01:06:24;;;;;;;22.15;8.25;;;;;;;;;;5050981;28;20040;-75
2021/08/14 01:08:50;;;;;;;27.58;7.93;;;;;;;;;;5053976;28;20105;-75
2021/08/14 01:11:15;;;;;;;23.15;6.70;;;;;;;;;;5054122;28;20094;-76
2021/08/14 01:13:41;;;;;;;25.38;7.22;;;;;;;;;;5054369;28;20041;-75
2021/08/14 01:16:07;;;;;;;24.88;7.47;;;;;;;;;;5054246;28;20028;-75
2021/08/14 01:18:32;;;;;;;26.10;6.65;;;;;;;;;;5054551;28;20033;-75
2021/08/14 01:20:58;;;;;;;34.10;7.95;;;;;;;;;;5054431;28;20029;-75
2021/08/14 01:23:23;;;;;;;29.70;8.23;;;;;;;;;;5054834;28;20044;-75
2021/08/14 01:26:02;;;;;;;30.27;7.93;;;;;;;;;;5054823;28;20048;-75
2021/08/14 01:28:27;;;;;;;26.17;7.75;;;;;;;;;;5049982;28;20488;-75
2021/08/14 01:30:52;;;;;;;22.70;7.93;;;;;;;;;;5054280;28;20056;-75
2021/08/14 01:33:18;;;;;;;29.38;8.30;;;;;;;;;;5054681;28;20040;-75
2021/08/14 01:35:45;;;;;;;40.60;8.00;;;;;;;;;;5054712;28;20027;-75
2021/08/14 01:38:11;;;;;;;22.83;8.32;;;;;;;;;;5054329;28;20021;-75
2021/08/14 01:40:36;;;;;;;27.08;7.38;;;;;;;;;;5054103;28;20426;-75
2021/08/14 01:43:01;;;;;;;29.42;7.65;;;;;;;;;;5053891;28;20017;-76
2021/08/14 01:45:27;;;;;;;27.00;8.50;;;;;;;;;;5054498;28;20057;-75
2021/08/14 01:47:52;;;;;;;31.77;7.97;;;;;;;;;;5054415;28;20029;-75
2021/08/14 01:50:17;;;;;;;28.38;7.68;;;;;;;;;;5055580;28;20037;-76
2021/08/14 01:52:42;;;;;;;22.10;8.07;;;;;;;;;;5054154;28;20028;-74
2021/08/14 01:55:08;;;;;;;27.60;8.13;;;;;;;;;;5054181;28;20061;-75
2021/08/14 01:57:33;;;;;;;23.25;7.20;;;;;;;;;;5054080;28;20454;-75
2021/08/14 01:59:58;;;;;;;28.90;7.65;;;;;;;;;;5053910;28;20099;-75
2021/08/14 02:02:24;;;;;;;23.65;7.97;;;;;;;;;;5053883;28;20033;-75
2021/08/14 02:04:49;;;;;;;28.83;8.80;;;;;;;;;;5054230;28;20017;-75
2021/08/14 02:07:14;;;;;;;26.35;8.82;;;;;;;;;;5053630;28;20044;-77
2021/08/14 02:09:39;;;;;;;31.02;7.97;;;;;;;;;;5054005;28;20469;-75
2021/08/14 02:12:05;;;;;;;24.83;8.30;;;;;;;;;;5036206;28;20155;-76
2021/08/14 02:14:30;;;;;;;23.60;7.80;;;;;;;;;;5053649;28;20082;-75
2021/08/14 02:16:55;;;;;;;28.90;7.90;;;;;;;;;;5054002;28;20037;-75
2021/08/14 02:19:21;;;;;;;26.13;8.02;;;;;;;;;;5053565;28;20021;-75
2021/08/14 02:21:46;;;;;;;23.17;8.73;;;;;;;;;;5053610;28;20029;-75
2021/08/14 02:24:11;;;;;;;40.97;10.57;;;;;;;;;;5053772;28;20094;-75
2021/08/14 02:26:37;;;;;;;31.50;9.30;;;;;;;;;;5053751;28;20025;-75
2021/08/14 02:29:02;;;;;;;22.40;7.40;;;;;;;;;;5053597;28;20395;-75
2021/08/14 02:31:27;;;;;;;25.45;8.40;;;;;;;;;;5053654;28;20126;-75
2021/08/14 02:33:53;;;;;;;32.35;8.45;;;;;;;;;;5053634;28;20028;-75
2021/08/14 02:36:19;;;;;;;24.83;7.53;;;;;;;;;;5053625;28;20166;-75
2021/08/14 02:38:44;;;;;;;24.42;7.50;;;;;;;;;;5053529;28;20048;-75
2021/08/14 02:41:10;;;;;;;24.70;7.57;;;;;;;;;;5053602;28;20407;-75
2021/08/14 02:43:35;;;;;;;23.48;7.45;;;;;;;;;;5053455;28;20029;-75
2021/08/14 02:46:01;;;;;;;18.08;6.50;;;;;;;;;;5053714;28;20041;-75
2021/08/14 02:48:27;;;;;;;20.80;6.90;;;;;;;;;;5053384;28;20079;-75
2021/08/14 02:50:52;;;;;;;28.65;7.85;;;;;;;;;;5053520;28;20079;-75
2021/08/14 02:53:18;;;;;;;22.75;7.55;;;;;;;;;;5053365;28;20040;-76
2021/08/14 02:55:43;;;;;;;25.30;6.75;;;;;;;;;;5053473;28;20104;-75
2021/08/14 02:58:08;;;;;;;19.23;6.22;;;;;;;;;;5053267;28;20484;-75
2021/08/14 03:00:34;;;;;;;18.30;7.15;;;;;;;;;;5053330;28;20039;-75
2021/08/14 03:02:59;;;;;;;26.73;7.25;;;;;;;;;;5053351;28;20032;-76
2021/08/14 03:05:24;;;;;;;20.90;6.95;;;;;;;;;;5053033;28;20064;-75
2021/08/14 03:07:50;;;;;;;18.88;6.15;;;;;;;;;;5053297;28;20032;-76
2021/08/14 03:10:15;;;;;;;24.55;6.43;;;;;;;;;;5056992;28;20040;-76
2021/08/14 03:12:40;;;;;;;20.75;7.22;;;;;;;;;;5057389;28;20071;-75
2021/08/14 03:15:06;;;;;;;22.42;7.57;;;;;;;;;;5057296;28;20040;-76
2021/08/14 03:17:31;;;;;;;13.63;5.88;;;;;;;;;;5057014;28;20021;-75
2021/08/14 03:19:57;;;;;;;19.17;6.30;;;;;;;;;;5056951;28;20028;-75
2021/08/14 03:22:22;;;;;;;16.02;5.90;;;;;;;;;;5057207;28;20079;-75
2021/08/14 03:24:47;;;;;;;18.40;6.65;;;;;;;;;;5057268;28;20100;-75
2021/08/14 03:27:13;;;;;;;20.50;7.22;;;;;;;;;;5057140;28;20040;-75
2021/08/14 03:29:38;;;;;;;27.23;6.40;;;;;;;;;;5057000;28;20561;-75
2021/08/14 03:32:03;;;;;;;16.85;6.80;;;;;;;;;;5057068;28;20041;-75
2021/08/14 03:34:29;;;;;;;20.65;6.55;;;;;;;;;;5056690;28;20508;-75
2021/08/14 03:36:54;;;;;;;24.35;6.75;;;;;;;;;;5056969;28;20094;-75
2021/08/14 03:39:20;;;;;;;24.80;6.22;;;;;;;;;;5056522;28;20428;-76
2021/08/14 03:41:45;;;;;;;19.77;6.15;;;;;;;;;;5056838;28;20108;-76
2021/08/14 03:44:10;;;;;;;19.35;5.95;;;;;;;;;;5056723;28;20033;-75
2021/08/14 03:46:36;;;;;;;13.20;5.95;;;;;;;;;;5056805;28;20449;-75
2021/08/14 03:49:01;;;;;;;15.80;5.95;;;;;;;;;;5056267;28;20538;-76
2021/08/14 03:51:26;;;;;;;16.00;6.20;;;;;;;;;;5056668;28;20033;-75
2021/08/14 03:53:52;;;;;;;15.75;5.78;;;;;;;;;;5056766;28;20021;-75
2021/08/14 03:56:17;;;;;;;12.73;5.22;;;;;;;;;;5056493;28;20036;-76
2021/08/14 03:58:42;;;;;;;18.90;5.60;;;;;;;;;;5056605;28;20039;-75
2021/08/14 04:01:07;;;;;;;23.13;5.18;;;;;;;;;;5038588;28;20025;-75
2021/08/14 04:03:33;;;;;;;16.30;5.70;;;;;;;;;;5056741;28;20036;-75
2021/08/14 04:05:59;;;;;;;11.75;4.43;;;;;;;;;;5056433;28;20033;-75
2021/08/14 04:08:24;;;;;;;13.23;5.38;;;;;;;;;;5055306;28;20388;-75
2021/08/14 04:10:49;;;;;;;14.07;4.57;;;;;;;;;;5055896;28;20029;-75
2021/08/14 04:13:15;;;;;;;17.42;4.38;;;;;;;;;;5056224;28;20123;-76
2021/08/14 04:15:40;;;;;;;10.20;4.13;;;;;;;;;;5056090;28;20025;-75
2021/08/14 04:18:05;;;;;;;12.93;4.53;;;;;;;;;;5056135;28;20369;-75
2021/08/14 04:20:31;;;;;;;13.98;4.70;;;;;;;;;;5054784;28;20037;-75
2021/08/14 04:22:56;;;;;;;9.45;3.63;;;;;;;;;;5056184;28;20052;-76
2021/08/14 04:25:21;;;;;;;12.80;5.03;;;;;;;;;;5055235;28;20104;-75
2021/08/14 04:27:46;;;;;;;12.45;3.95;;;;;;;;;;5055752;28;20060;-75
2021/08/14 04:30:12;;;;;;;10.48;4.13;;;;;;;;;;5055750;28;20389;-75
2021/08/14 04:32:37;;;;;;;10.05;4.25;;;;;;;;;;5055979;28;20029;-75
2021/08/14 04:35:04;;;;;;;12.52;3.50;;;;;;;;;;5055735;28;20033;-76
2021/08/14 04:37:29;;;;;;;10.48;3.65;;;;;;;;;;5055615;28;20100;-75
2021/08/14 04:39:54;;;;;;;12.13;4.32;;;;;;;;;;5055806;28;20056;-75
2021/08/14 04:42:19;;;;;;;10.70;4.00;;;;;;;;;;5055696;28;20037;-75
2021/08/14 04:44:45;;;;;;;13.50;4.63;;;;;;;;;;5055633;28;20035;-75
2021/08/14 04:47:10;;;;;;;11.73;4.10;;;;;;;;;;5055692;28;20079;-75
2021/08/14 04:49:35;;;;;;;13.88;4.07;;;;;;;;;;5055468;28;20110;-76
2021/08/14 04:52:01;;;;;;;13.35;3.97;;;;;;;;;;5055533;28;20017;-76
2021/08/14 04:54:26;;;;;;;13.20;4.90;;;;;;;;;;5055229;28;20028;-75
2021/08/14 04:56:51;;;;;;;9.80;4.15;;;;;;;;;;5055712;28;20052;-75
2021/08/14 04:59:16;;;;;;;10.07;3.97;;;;;;;;;;5055437;28;20101;-76
2021/08/14 05:01:42;;;;;;;13.55;3.80;;;;;;;;;;5055670;28;20029;-76
2021/08/14 05:04:07;;;;;;;12.80;4.28;;;;;;;;;;5055089;28;20065;-75
2021/08/14 05:06:32;;;;;;;9.60;4.07;;;;;;;;;;5055247;28;20043;-75
2021/08/14 05:08:57;;;;;;;10.73;3.80;;;;;;;;;;5055129;28;20033;-76
2021/08/14 05:11:23;;;;;;;13.70;4.05;;;;;;;;;;5055180;28;20083;-76
2021/08/14 05:13:48;;;;;;;10.27;3.60;;;;;;;;;;5055214;28;20024;-75
2021/08/14 05:16:13;;;;;;;17.17;4.07;;;;;;;;;;5055016;28;20385;-74
2021/08/14 05:18:39;;;;;;;8.68;3.28;;;;;;;;;;5055295;28;20492;-76
2021/08/14 05:21:04;;;;;;;12.27;3.58;;;;;;;;;;5054960;28;20044;-75
2021/08/14 05:23:29;;;;;;;9.30;3.42;;;;;;;;;;5054684;28;20028;-75
2021/08/14 05:25:54;;;;;;;11.60;3.97;;;;;;;;;;5054949;28;20032;-75
2021/08/14 05:28:22;;;;;;;6.53;3.17;;;;;;;;;;5044861;28;20053;-76
2021/08/14 05:30:47;;;;;;;9.73;3.70;;;;;;;;;;5052640;28;20037;-77
2021/08/14 05:33:12;;;;;;;11.02;3.78;;;;;;;;;;5051705;28;20029;-76
2021/08/14 05:35:38;;;;;;;7.70;3.50;;;;;;;;;;5052572;28;20163;-76
2021/08/14 05:38:03;;;;;;;12.07;3.88;;;;;;;;;;5052041;28;20462;-76
2021/08/14 05:40:28;;;;;;;8.50;3.22;;;;;;;;;;5052545;28;20118;-75
2021/08/14 05:42:54;;;;;;;10.55;3.22;;;;;;;;;;5053483;28;20378;-76
2021/08/14 05:45:19;;;;;;;13.70;4.10;;;;;;;;;;5045691;28;20470;-77
2021/08/14 05:47:44;;;;;;;6.90;2.90;;;;;;;;;;5035931;28;20049;-76
2021/08/14 05:50:10;;;;;;;12.43;3.53;;;;;;;;;;5053019;28;20112;-75
2021/08/14 05:52:35;;;;;;;9.80;3.47;;;;;;;;;;5052084;28;20040;-75
2021/08/14 05:55:01;;;;;;;8.15;2.90;;;;;;;;;;5051917;28;20032;-77
2021/08/14 05:57:26;;;;;;;8.40;3.65;;;;;;;;;;5052059;28;20020;-76
2021/08/14 05:59:51;;;;;;;6.35;2.88;;;;;;;;;;5052444;28;20389;-76
2021/08/14 06:02:17;;;;;;;7.47;2.50;;;;;;;;;;5047290;28;20381;-76
2021/08/14 06:04:42;;;;;;;11.27;2.90;;;;;;;;;;5053689;28;20028;-75
2021/08/14 06:07:07;;;;;;;6.10;2.63;;;;;;;;;;5054123;28;20138;-76
2021/08/14 06:09:32;;;;;;;10.23;2.90;;;;;;;;;;5053982;28;20044;-76
2021/08/14 06:11:59;;;;;;;9.00;3.13;;;;;;;;;;5054277;28;20476;-76
2021/08/14 06:14:24;;;;;;;7.43;3.28;;;;;;;;;;5053959;28;20029;-76
2021/08/14 06:16:50;;;;;;;7.85;2.72;;;;;;;;;;5053945;28;20511;-75
2021/08/14 06:19:15;;;;;;;6.93;2.78;;;;;;;;;;5053923;28;20029;-76
2021/08/14 06:21:40;;;;;;;9.57;2.95;;;;;;;;;;5053829;28;20087;-76
2021/08/14 06:24:05;;;;;;;8.73;3.00;;;;;;;;;;5053808;28;20446;-76
2021/08/14 06:26:31;;;;;;;7.07;2.78;;;;;;;;;;5053663;28;20021;-75
2021/08/14 06:28:56;;;;;;;8.88;2.88;;;;;;;;;;5053528;28;20037;-76
2021/08/14 06:31:21;;;;;;;9.82;3.28;;;;;;;;;;5053080;28;20048;-76
2021/08/14 06:33:47;;;;;;;7.53;2.90;;;;;;;;;;5052766;28;20024;-75
2021/08/14 06:36:12;;;;;;;12.27;4.03;;;;;;;;;;5053254;28;20029;-76
2021/08/14 06:38:38;;;;;;;9.70;3.78;;;;;;;;;;5053520;28;20108;-76
2021/08/14 06:41:03;;;;;;;9.43;3.30;;;;;;;;;;5053254;28;20416;-76
2021/08/14 06:43:29;;;;;;;11.52;3.75;;;;;;;;;;5052517;28;20025;-75
2021/08/14 06:45:54;;;;;;;9.63;3.53;;;;;;;;;;5053443;28;20116;-76
2021/08/14 06:48:19;;;;;;;9.23;3.60;;;;;;;;;;5053403;28;20029;-76
2021/08/14 06:50:45;;;;;;;8.50;4.20;;;;;;;;;;5053352;28;20035;-76
2021/08/14 06:53:10;;;;;;;10.38;3.95;;;;;;;;;;5053328;28;20060;-75
2021/08/14 06:55:35;;;;;;;8.70;3.78;;;;;;;;;;5053084;28;20057;-76
2021/08/14 06:58:01;;;;;;;8.40;3.45;;;;;;;;;;5053406;28;20063;-76
2021/08/14 07:00:26;;;;;;;8.77;3.53;;;;;;;;;;5053539;28;20040;-76
2021/08/14 07:02:52;;;;;;;11.13;3.75;;;;;;;;;;5053171;28;20021;-76
2021/08/14 07:05:17;;;;;;;8.85;3.45;;;;;;;;;;5053192;28;20032;-76
2021/08/14 07:07:42;;;;;;;11.65;4.28;;;;;;;;;;5053287;28;20033;-76
2021/08/14 07:10:08;;;;;;;8.10;3.60;;;;;;;;;;5053196;28;20392;-75
2021/08/14 07:12:33;;;;;;;13.20;3.55;;;;;;;;;;5053269;28;20176;-76
2021/08/14 07:14:59;;;;;;;14.07;4.72;;;;;;;;;;5053024;28;20056;-76
2021/08/14 07:17:25;;;;;;;14.80;4.40;;;;;;;;;;5053059;28;20064;-76
2021/08/14 07:19:50;;;;;;;13.65;3.95;;;;;;;;;;5053079;28;20033;-76
2021/08/14 07:22:15;;;;;;;13.82;4.15;;;;;;;;;;5053217;28;20037;-76
2021/08/14 07:24:40;;;;;;;15.95;5.38;;;;;;;;;;5053040;28;20067;-76
2021/08/14 07:27:06;;;;;;;11.07;4.97;;;;;;;;;;5052970;28;20053;-76
2021/08/14 07:29:31;;;;;;;19.10;4.88;;;;;;;;;;5052971;28;20044;-76
2021/08/14 07:31:56;;;;;;;16.25;4.90;;;;;;;;;;5052610;28;20401;-76
2021/08/14 07:34:21;;;;;;;18.40;5.20;;;;;;;;;;5053281;28;20024;-76
2021/08/14 07:36:47;;;;;;;17.00;5.28;;;;;;;;;;5052993;28;20051;-76
2021/08/14 07:39:12;;;;;;;13.98;4.47;;;;;;;;;;5052951;28;20457;-75
2021/08/14 07:41:37;;;;;;;11.00;4.40;;;;;;;;;;5053072;28;20078;-75
2021/08/14 07:44:03;;;;;;;13.68;4.55;;;;;;;;;;5052855;28;20028;-76
2021/08/14 07:46:28;;;;;;;13.43;3.85;;;;;;;;;;5047120;28;20097;-77
2021/08/14 07:48:53;;;;;;;15.70;5.00;;;;;;;;;;5052996;28;20033;-76
2021/08/14 07:51:19;;;;;;;11.10;3.53;;;;;;;;;;5052251;28;20424;-77
2021/08/14 07:53:44;;;;;;;9.18;4.05;;;;;;;;;;5052563;28;20025;-77
2021/08/14 07:56:09;;;;;;;8.40;3.70;;;;;;;;;;5056214;28;20116;-77
2021/08/14 07:58:35;;;;;;;14.32;3.40;;;;;;;;;;5056501;28;20365;-76
2021/08/14 08:01:00;;;;;;;11.90;3.72;;;;;;;;;;5056361;28;20096;-76
2021/08/14 08:03:25;;;;;;;14.55;4.25;;;;;;;;;;5056418;28;20056;-76
2021/08/14 08:05:51;;;;;;;9.50;3.42;;;;;;;;;;5056515;28;20120;-76
2021/08/14 08:08:16;;;;;;;6.75;2.95;;;;;;;;;;5056196;28;20021;-76
2021/08/14 08:10:41;;;;;;;8.05;2.85;;;;;;;;;;5056154;28;20385;-75
2021/08/14 08:13:06;;;;;;;11.77;2.97;;;;;;;;;;5056221;28;20056;-75
2021/08/14 08:15:32;;;;;;;7.00;2.45;;;;;;;;;;5056571;28;20031;-75
2021/08/14 08:17:57;;;;;;;7.55;3.17;;;;;;;;;;5056110;28;20488;-76
2021/08/14 08:20:23;;;;;;;8.48;2.25;;;;;;;;;;5055728;28;20025;-75
2021/08/14 08:22:48;;;;;;;7.00;2.50;;;;;;;;;;5055477;28;20020;-75
2021/08/14 08:25:14;;;;;;;6.13;2.83;;;;;;;;;;5056046;28;20029;-75
2021/08/14 08:27:41;;;;;;;7.90;2.78;;;;;;;;;;5055579;28;20496;-76
2021/08/14 08:30:07;;;;;;;8.80;2.85;;;;;;;;;;5055710;28;20041;-75
2021/08/14 08:32:32;;;;;;;6.50;2.70;;;;;;;;;;5055943;28;20029;-75
2021/08/14 08:34:57;;;;;;;6.45;2.50;;;;;;;;;;5055862;28;20036;-76
2021/08/14 08:37:24;;;;;;;6.10;2.33;;;;;;;;;;5055568;28;20381;-76
2021/08/14 08:39:49;;;;;;;5.82;2.58;;;;;;;;;;5055200;28;20098;-76
2021/08/14 08:42:14;;;;;;;7.45;3.47;;;;;;;;;;5055307;28;20479;-76
2021/08/14 08:44:40;;;;;;;5.60;2.35;;;;;;;;;;5055537;28;20017;-76
2021/08/14 08:47:07;;;;;;;4.60;2.15;;;;;;;;;;5045834;28;20029;-77
2021/08/14 08:49:33;;;;;;;3.80;2.03;;;;;;;;;;5052816;28;20052;-77
2021/08/14 08:51:59;;;;;;;8.20;2.33;;;;;;;;;;5054258;28;20397;-78
2021/08/14 08:54:24;;;;;;;5.88;2.00;;;;;;;;;;5053034;28;20025;-77
2021/08/14 08:56:49;;;;;;;4.45;1.77;;;;;;;;;;5052401;28;20041;-78
2021/08/14 08:59:15;;;;;;;5.93;2.50;;;;;;;;;;5051794;28;20020;-77
2021/08/14 09:01:41;;;;;;;6.10;2.28;;;;;;;;;;5051730;28;20064;-77
2021/08/14 09:04:24;;;;;;;4.38;1.77;;;;;;;;;;5052277;28;20055;-77
2021/08/14 09:06:49;;;;;;;3.38;1.65;;;;;;;;;;5051152;28;20035;-77
2021/08/14 09:09:15;;;;;;;4.72;1.70;;;;;;;;;;5050977;28;20397;-79
2021/08/14 09:11:47;;;;;;;4.22;1.75;;;;;;;;;;5049497;28;20044;-77
2021/08/14 09:14:13;;;;;;;4.63;1.98;;;;;;;;;;5052223;28;20424;-79
2021/08/14 09:16:38;;;;;;;5.32;2.13;;;;;;;;;;5051827;28;20033;-76
2021/08/14 09:19:03;;;;;;;3.95;1.85;;;;;;;;;;5051804;28;20052;-77
2021/08/14 09:21:29;;;;;;;3.80;1.75;;;;;;;;;;5055100;28;20083;-76
2021/08/14 09:23:54;;;;;;;4.00;1.73;;;;;;;;;;5054806;28;20508;-76
2021/08/14 09:26:19;;;;;;;6.00;2.28;;;;;;;;;;5055215;28;20075;-77
2021/08/14 09:28:45;;;;;;;7.22;2.88;;;;;;;;;;5053599;28;20397;-76
2021/08/14 09:31:11;;;;;;;9.07;3.47;;;;;;;;;;5054494;28;20049;-76
2021/08/14 09:33:37;;;;;;;9.18;3.70;;;;;;;;;;5054444;28;20040;-76
2021/08/14 09:36:07;;;;;;;9.45;3.70;;;;;;;;;;5054301;28;20021;-75
2021/08/14 09:38:39;;;;;;;11.88;4.10;;;;;;;;;;5041008;28;20045;-75
2021/08/14 09:41:09;;;;;;;12.30;4.03;;;;;;;;;;5052612;28;20567;-75
2021/08/14 09:43:34;;;;;;;9.93;4.38;;;;;;;;;;5053957;28;20075;-75
2021/08/14 09:46:00;;;;;;;10.93;4.82;;;;;;;;;;5053916;28;20120;-75
2021/08/14 09:48:25;;;;;;;13.07;4.65;;;;;;;;;;5053868;28;20029;-75
2021/08/14 09:50:51;;;;;;;13.95;4.75;;;;;;;;;;5053501;28;20033;-76
2021/08/14 09:53:20;;;;;;;16.33;4.40;;;;;;;;;;5035589;28;20024;-75
2021/08/14 09:55:52;;;;;;;15.63;5.05;;;;;;;;;;5053401;28;20056;-75
2021/08/14 09:58:20;;;;;;;15.10;4.97;;;;;;;;;;5053301;28;20534;-74
2021/08/14 10:00:47;;;;;;;15.80;5.45;;;;;;;;;;5053652;28;20055;-75
2021/08/14 10:03:14;;;;;;;13.43;4.90;;;;;;;;;;5052576;28;20389;-75
2021/08/14 10:05:40;;;;;;;16.45;5.18;;;;;;;;;;5053743;28;20345;-75
2021/08/14 10:08:05;;;;;;;12.68;4.53;;;;;;;;;;5053736;28;20029;-75
2021/08/14 10:10:31;;;;;;;16.65;4.60;;;;;;;;;;5053303;28;20037;-75
2021/08/14 10:12:57;;;;;;;13.38;5.32;;;;;;;;;;5053898;28;20037;-76
2021/08/14 10:15:22;;;;;;;12.98;5.32;;;;;;;;;;5053255;28;20017;-76
2021/08/14 10:17:47;;;;;;;11.90;4.60;;;;;;;;;;5053854;28;20075;-75
2021/08/14 10:20:13;;;;;;;12.32;4.40;;;;;;;;;;5053824;28;20461;-75
2021/08/14 10:22:38;;;;;;;11.85;4.68;;;;;;;;;;5053656;28;20024;-75
2021/08/14 10:25:04;;;;;;;12.65;4.82;;;;;;;;;;5053249;28;20036;-75
2021/08/14 10:27:49;;;;;;;12.98;5.15;;;;;;;;;;5052956;28;20033;-75
2021/08/14 10:30:34;;;;;;;14.90;5.05;;;;;;;;;;5053019;28;20033;-75
2021/08/14 10:32:59;;;;;;;10.95;4.40;;;;;;;;;;5053219;28;20037;-76
2021/08/14 10:35:24;;;;;;;20.65;5.28;;;;;;;;;;5053561;28;20032;-76
2021/08/14 10:37:50;;;;;;;12.85;4.60;;;;;;;;;;5053120;28;20040;-75
2021/08/14 10:40:16;;;;;;;11.48;4.15;;;;;;;;;;5053595;28;20017;-76
2021/08/14 10:42:53;;;;;;;14.20;4.72;;;;;;;;;;5053468;28;20124;-76
2021/08/14 10:45:30;;;;;;;12.60;5.15;;;;;;;;;;5053592;28;20158;-75
2021/08/14 10:47:55;;;;;;;13.68;4.78;;;;;;;;;;5053425;28;20029;-75
2021/08/14 10:50:32;;;;;;;12.32;4.47;;;;;;;;;;5053087;28;20048;-75
2021/08/14 10:53:10;;;;;;;14.80;5.07;;;;;;;;;;5053283;28;20389;-75
2021/08/14 10:55:35;;;;;;;11.55;5.03;;;;;;;;;;5053309;28;20029;-75
2021/08/14 10:58:15;;;;;;;11.57;5.28;;;;;;;;;;5053597;28;20382;-75
2021/08/14 11:00:40;;;;;;;10.40;4.25;;;;;;;;;;5052240;28;20037;-75
2021/08/14 11:03:07;;;;;;;12.15;4.38;;;;;;;;;;5052174;28;20029;-75
2021/08/14 11:05:33;;;;;;;10.02;4.50;;;;;;;;;;5052186;28;20060;-75
2021/08/14 11:08:00;;;;;;;13.82;4.72;;;;;;;;;;5044973;28;20473;-75
2021/08/14 11:10:44;;;;;;;11.52;4.30;;;;;;;;;;5042406;28;20044;-76
2021/08/14 11:13:27;;;;;;;9.38;4.80;;;;;;;;;;5053115;28;20492;-75
2021/08/14 11:15:53;;;;;;;10.05;4.05;;;;;;;;;;5053165;28;20419;-75
2021/08/14 11:18:38;;;;;;;9.15;4.00;;;;;;;;;;5052857;28;20079;-76
2021/08/14 11:21:03;;;;;;;;;;;;;;;;;;5053447;28;20100;-76
2021/08/14 11:23:29;;;;;;;12.45;4.13;;;;;;;;;;5052911;28;19940;-77
2021/08/14 11:25:55;;;;;;;7.63;4.00;;;;;;;;;;5053144;28;20044;-76
2021/08/14 11:28:25;;;;;;;10.27;3.78;;;;;;;;;;5052649;28;20029;-75
2021/08/14 11:31:00;;;;;;;12.02;3.75;;;;;;;;;;5055729;28;20041;-75
2021/08/14 11:33:26;;;;;;;10.68;3.22;;;;;;;;;;5057046;28;20051;-76
2021/08/14 11:36:02;;;;;;;10.05;3.47;;;;;;;;;;5056575;28;20501;-75
2021/08/14 11:38:31;;;;;;;8.60;3.38;;;;;;;;;;5043958;28;20036;-75
2021/08/14 11:40:59;;;;;;;9.25;3.25;;;;;;;;;;5053024;28;20071;-75
2021/08/14 11:43:31;;;;;;;6.93;3.10;;;;;;;;;;5055903;28;20064;-75
2021/08/14 11:46:02;;;;;;;7.72;3.60;;;;;;;;;;5054740;28;20063;-76
2021/08/14 11:48:36;;;;;;;8.60;3.13;;;;;;;;;;5056568;28;20021;-76
2021/08/14 11:51:01;;;;;;;6.38;2.60;;;;;;;;;;5056574;28;20108;-75
2021/08/14 11:53:27;;;;;;;11.88;2.60;;;;;;;;;;5056399;28;20101;-76
2021/08/14 11:56:05;;;;;;;9.30;3.25;;;;;;;;;;5056331;28;20059;-76
2021/08/14 11:58:30;;;;;;;5.82;2.50;;;;;;;;;;5055655;28;20029;-76
2021/08/14 12:00:56;;;;;;;5.20;2.53;;;;;;;;;;5056233;28;20062;-76
2021/08/14 12:03:21;;;;;;;7.95;2.70;;;;;;;;;;5056401;28;20031;-75
2021/08/14 12:05:48;;;;;;;4.93;1.98;;;;;;;;;;5056338;28;20087;-76
2021/08/14 12:08:31;;;;;;;5.90;2.28;;;;;;;;;;5056018;28;20024;-76
2021/08/14 12:10:57;;;;;;;6.43;2.17;;;;;;;;;;5056002;28;20451;-76
2021/08/14 12:13:23;;;;;;;5.00;2.10;;;;;;;;;;5052115;28;20029;-75
2021/08/14 12:15:49;;;;;;;6.65;2.50;;;;;;;;;;5036255;28;20033;-76
2021/08/14 12:18:31;;;;;;;7.93;2.15;;;;;;;;;;5045849;28;20339;-76
2021/08/14 12:21:00;;;;;;;4.93;2.05;;;;;;;;;;5037510;28;20093;-75
2021/08/14 12:23:36;;;;;;;5.07;2.40;;;;;;;;;;5049962;28;20101;-77
2021/08/14 12:26:05;;;;;;;4.65;2.25;;;;;;;;;;5055217;28;20017;-76
2021/08/14 12:28:41;;;;;;;3.97;2.05;;;;;;;;;;5034813;28;20037;-75
2021/08/14 12:31:16;;;;;;;5.28;2.30;;;;;;;;;;5035513;28;20045;-75
2021/08/14 12:33:52;;;;;;;3.45;1.75;;;;;;;;;;5035898;28;20480;-75
2021/08/14 12:36:35;;;;;;;4.65;1.95;;;;;;;;;;5035760;28;20025;-74
2021/08/14 12:39:01;;;;;;;3.97;1.65;;;;;;;;;;5053040;28;20029;-74
2021/08/14 12:41:33;;;;;;;4.10;1.88;;;;;;;;;;5054598;28;20028;-76
2021/08/14 12:43:58;;;;;;;3.38;1.55;;;;;;;;;;5055674;28;20033;-74
2021/08/14 12:46:24;;;;;;;3.28;1.63;;;;;;;;;;5055512;28;20487;-74
2021/08/14 12:49:08;;;;;;;3.47;1.80;;;;;;;;;;5055477;28;20079;-74
2021/08/14 12:51:34;;;;;;;6.75;1.95;;;;;;;;;;5054702;28;20044;-74
2021/08/14 12:54:11;;;;;;;3.38;1.63;;;;;;;;;;5055000;28;20465;-74
2021/08/14 12:56:38;;;;;;;4.82;1.85;;;;;;;;;;5054783;28;20140;-75
2021/08/14 12:59:06;;;;;;;6.57;1.92;;;;;;;;;;5054414;28;20576;-74
2021/08/14 13:01:32;;;;;;;4.07;1.60;;;;;;;;;;5054433;28;20025;-74
2021/08/14 13:03:57;;;;;;;4.38;1.92;;;;;;;;;;5054736;28;20100;-75
2021/08/14 13:06:22;;;;;;;4.13;2.30;;;;;;;;;;5054384;28;20467;-75
2021/08/14 13:08:48;;;;;;;3.50;1.80;;;;;;;;;;5054827;28;20041;-74
2021/08/14 13:11:13;;;;;;;3.45;1.75;;;;;;;;;;5054973;28;20068;-74
2021/08/14 13:13:39;;;;;;;4.13;1.30;;;;;;;;;;5054079;28;20100;-74
2021/08/14 13:16:05;;;;;;;4.50;1.77;;;;;;;;;;5054833;28;20051;-75
2021/08/14 13:18:30;;;;;;;5.63;1.75;;;;;;;;;;5054430;28;20108;-74
2021/08/14 13:20:55;;;;;;;3.72;1.50;;;;;;;;;;5054586;28;20021;-75
2021/08/14 13:23:21;;;;;;;4.25;1.77;;;;;;;;;;5036091;28;20083;-75
2021/08/14 13:25:46;;;;;;;4.25;1.60;;;;;;;;;;5039498;28;20028;-75
2021/08/14 13:28:11;;;;;;;3.72;1.60;;;;;;;;;;5053847;28;20020;-74
2021/08/14 13:30:37;;;;;;;4.20;1.55;;;;;;;;;;5054404;28;20053;-75
2021/08/14 13:33:02;;;;;;;2.35;1.10;;;;;;;;;;5054637;28;20096;-74
2021/08/14 13:35:27;;;;;;;2.30;0.98;;;;;;;;;;5054692;28;20025;-75
2021/08/14 13:37:52;;;;;;;3.03;1.20;;;;;;;;;;5054451;28;20029;-75
2021/08/14 13:40:18;;;;;;;3.53;1.50;;;;;;;;;;5054063;28;20477;-75
2021/08/14 13:42:44;;;;;;;2.97;1.17;;;;;;;;;;5035946;28;20025;-75
2021/08/14 13:45:10;;;;;;;3.22;1.25;;;;;;;;;;5053627;28;20479;-75
2021/08/14 13:47:38;;;;;;;3.42;1.55;;;;;;;;;;5054183;28;20021;-74
2021/08/14 13:50:04;;;;;;;2.75;1.10;;;;;;;;;;5054086;28;20056;-76
2021/08/14 13:52:29;;;;;;;3.53;1.00;;;;;;;;;;5053321;28;20052;-76
2021/08/14 13:54:54;;;;;;;6.05;2.50;;;;;;;;;;5053934;28;20068;-74
2021/08/14 13:57:20;;;;;;;4.05;1.90;;;;;;;;;;5054370;28;20025;-74
2021/08/14 13:59:45;;;;;;;4.75;1.70;;;;;;;;;;5053683;28;20029;-74
2021/08/14 14:02:11;;;;;;;3.17;1.08;;;;;;;;;;5053605;28;20033;-74
2021/08/14 14:04:37;;;;;;;1.85;1.20;;;;;;;;;;5052554;28;20430;-74
2021/08/14 14:07:02;;;;;;;4.05;1.40;;;;;;;;;;5053779;28;20100;-74
2021/08/14 14:09:29;;;;;;;3.47;1.63;;;;;;;;;;5053277;28;20047;-75
2021/08/14 14:11:55;;;;;;;3.85;1.27;;;;;;;;;;5050376;28;20017;-74
2021/08/14 14:14:20;;;;;;;2.80;1.30;;;;;;;;;;5042634;28;20043;-74
2021/08/14 14:16:45;;;;;;;3.28;1.20;;;;;;;;;;5053559;28;20029;-75
2021/08/14 14:19:11;;;;;;;3.83;1.48;;;;;;;;;;5053501;28;20021;-74
2021/08/14 14:21:36;;;;;;;3.60;1.35;;;;;;;;;;5054045;28;20164;-75
2021/08/14 14:24:01;;;;;;;3.58;1.70;;;;;;;;;;5052867;28;20044;-74
2021/08/14 14:26:26;;;;;;;3.78;1.23;;;;;;;;;;5053292;28;20029;-74
2021/08/14 14:28:53;;;;;;;6.25;1.20;;;;;;;;;;5053654;28;20037;-74
2021/08/14 14:31:18;;;;;;;2.97;1.30;;;;;;;;;;5052921;28;20481;-74